Witten, South Dakota
Current Conditions -  °F | °C
As of 11:53 AM on Friday 31 Oct 2014 (Local Time) from KICR Reporting Station
Clear Clear  
Wind Chill: 28°   Ceiling: Unl
Heat Index: 36°   Visibility: 10mi
Dew Point: 18°   Wind: 10mph
Humidity: 48%   Direction: 150°SSE
Pressure: 30.53"   Gusts: 18mph
Location:  43.44°N, 100.08°W
Report Text: KICR 311653Z AUTO 15009G16KT 10SM CLR 02/M08 A3053 RMK AO2 SLP357 T00221078
Loading
Personal Weather Stations






























Interactive Weather Map
Tropical Storm Tracking
New forecast layout! Learn more

10-Day Weather Forecast

Advertisements
Track Severe Weather on mobile